CST,Max TemperatureF,Mean TemperatureF,Min TemperatureF,Max Dew PointF,MeanDew PointF,Min DewpointF,Max Humidity, Mean Humidity, Min Humidity, Max Sea Level PressureIn, Mean Sea Level PressureIn, Min Sea Level PressureIn, Max VisibilityMiles, Mean VisibilityMiles, Min VisibilityMiles, Max Wind SpeedMPH, Mean Wind SpeedMPH, Max Gust SpeedMPH,PrecipitationIn, CloudCover, Events, WindDirDegrees
2011-12-1,51,40,30,30,25,21,76,59,39,30.37,30.24,30.13,10,10,10,12,6,,0.00,1,,166
2011-12-2,42,37,33,35,31,28,85,79,75,30.47,30.37,30.24,9,8,5,13,10,,0.00,7,,115
2011-12-3,55,50,44,50,42,35,93,77,51,30.26,30.05,29.87,10,9,5,21,12,32,0.34,7,Rain,169
2011-12-4,54,42,30,52,35,23,94,82,72,30.31,30.09,29.86,10,10,6,23,13,34,0.00,8,,294
2011-12-5,30,28,26,23,21,20,81,76,72,30.39,30.33,30.28,10,10,8,17,12,,0.00,8,,345
2011-12-6,28,26,24,25,23,21,93,88,80,30.33,30.25,30.18,9,3,0,13,10,,0.00,8,Fog-Snow,318
2011-12-7,32,25,18,23,19,15,88,77,61,30.20,30.17,30.12,10,9,5,13,7,,0.00,3,,247
2011-12-8,37,30,23,27,23,19,88,75,57,30.29,30.23,30.19,10,9,4,8,3,,0.00,4,,350
2011-12-9,30,24,18,28,19,9,93,73,45,30.55,30.36,30.22,10,8,4,16,8,,0.00,4,,350
2011-12-10,34,23,12,22,15,5,74,66,56,30.60,30.52,30.44,10,10,10,12,4,,0.00,0,,195
2011-12-11,45,36,27,32,26,19,78,71,60,30.45,30.39,30.33,10,9,8,13,9,,0.00,0,,187
2011-12-12,45,38,32,28,24,19,73,57,36,30.38,30.34,30.31,10,10,10,10,7,,0.00,6,,171
2011-12-13,44,42,39,43,37,27,100,83,55,30.40,30.31,30.16,10,8,2,8,5,,0.34,8,Rain,174
2011-12-14,59,50,44,56,49,43,100,93,87,30.14,29.90,29.74,10,5,2,17,10,25,1.17,8,Rain-Thunderstorm,185
2011-12-15,57,44,28,55,35,23,94,79,65,30.36,30.04,29.74,10,9,3,22,12,31,0.04,7,Rain,293
2011-12-16,35,28,21,24,22,19,89,76,61,30.47,30.40,30.34,10,10,10,7,4,,0.00,0,,309
2011-12-17,43,36,28,29,26,24,86,75,56,30.37,30.30,30.26,10,10,8,17,7,17,0.00,1,,237
2011-12-18,51,39,27,36,31,25,92,71,50,30.28,30.13,29.95,10,10,7,18,8,,0.00,2,,202
2011-12-19,51,45,39,40,37,33,89,71,52,30.15,30.03,29.92,10,9,5,14,10,22,0.33,8,Rain,264
2011-12-20,39,38,36,39,37,34,100,94,93,30.13,29.94,29.75,10,3,0,17,9,24,0.36,8,Fog-Rain,63
2011-12-21,41,38,34,38,35,31,100,90,77,29.98,29.81,29.69,10,8,2,13,7,,0.02,6,Rain,246
2011-12-22,36,33,30,34,30,25,93,89,80,30.35,30.14,30.00,10,5,1,16,9,,0.00,6,Snow,340
2011-12-23,32,28,23,25,21,19,86,76,67,30.45,30.36,30.30,10,10,10,15,10,,0.00,4,,272
2011-12-24,42,33,24,29,24,19,84,73,57,30.39,30.32,30.25,10,10,10,13,7,,0.00,0,,220
2011-12-25,46,38,30,29,26,24,79,66,50,30.39,30.32,30.25,10,10,10,16,9,22,0.00,0,,263
2011-12-26,39,33,27,34,28,22,96,78,60,30.34,30.13,29.88,10,9,4,14,7,,0.00,4,Rain,185
2011-12-27,39,34,28,34,30,23,96,84,65,30.10,29.86,29.74,10,7,0,22,9,31,0.00,5,Fog-Rain,276
2011-12-28,45,34,24,32,27,21,88,74,58,30.10,30.00,29.83,10,10,10,10,6,,0.00,1,,198
2011-12-29,54,46,37,37,33,29,76,63,47,29.80,29.70,29.63,10,10,10,16,10,21,0.00,3,Rain,212
2011-12-30,48,44,39,39,37,35,86,74,59,29.92,29.67,29.47,10,10,4,28,14,37,0.04,7,Rain,278
2011-12-31,55,44,34,36,33,28,93,64,38,29.96,29.80,29.59,10,10,8,21,9,31,0.00,1,,166